sensor_id;sensor_type;location;lat;lon;timestamp;temperature;humidity
75782;DHT22;64400;44.762;37.698;2022-12-11T00:00:28;13.75;88.22
75782;DHT22;64400;44.762;37.698;2022-12-11T00:02:56;13.77;88.20
75782;DHT22;64400;44.762;37.698;2022-12-11T00:05:24;13.80;87.72
75782;DHT22;64400;44.762;37.698;2022-12-11T00:07:52;13.80;87.98
75782;DHT22;64400;44.762;37.698;2022-12-11T00:10:20;13.85;87.38
75782;DHT22;64400;44.762;37.698;2022-12-11T00:12:48;13.84;87.37
75782;DHT22;64400;44.762;37.698;2022-12-11T00:15:16;13.83;87.64
75782;DHT22;64400;44.762;37.698;2022-12-11T00:17:44;13.82;87.31
75782;DHT22;64400;44.762;37.698;2022-12-11T00:20:12;13.84;86.80
75782;DHT22;64400;44.762;37.698;2022-12-11T00:22:39;13.90;86.06
75782;DHT22;64400;44.762;37.698;2022-12-11T00:25:08;13.93;85.82
75782;DHT22;64400;44.762;37.698;2022-12-11T00:27:36;13.95;85.63
75782;DHT22;64400;44.762;37.698;2022-12-11T00:30:04;13.95;85.84
75782;DHT22;64400;44.762;37.698;2022-12-11T00:32:32;13.94;85.64
75782;DHT22;64400;44.762;37.698;2022-12-11T00:35:04;13.95;84.90
75782;DHT22;64400;44.762;37.698;2022-12-11T00:37:32;14.00;83.92
75782;DHT22;64400;44.762;37.698;2022-12-11T00:40:00;14.09;83.82
75782;DHT22;64400;44.762;37.698;2022-12-11T00:42:29;14.06;84.12
75782;DHT22;64400;44.762;37.698;2022-12-11T00:44:57;14.10;83.78
75782;DHT22;64400;44.762;37.698;2022-12-11T00:47:25;14.12;83.70
75782;DHT22;64400;44.762;37.698;2022-12-11T00:49:52;14.10;83.60
75782;DHT22;64400;44.762;37.698;2022-12-11T00:52:21;14.10;83.96
75782;DHT22;64400;44.762;37.698;2022-12-11T00:54:49;14.06;84.21
75782;DHT22;64400;44.762;37.698;2022-12-11T00:57:16;14.05;84.43
75782;DHT22;64400;44.762;37.698;2022-12-11T00:59:44;14.10;83.78
75782;DHT22;64400;44.762;37.698;2022-12-11T01:02:12;14.17;83.58
75782;DHT22;64400;44.762;37.698;2022-12-11T01:04:40;14.08;84.18
75782;DHT22;64400;44.762;37.698;2022-12-11T01:07:08;14.07;84.10
75782;DHT22;64400;44.762;37.698;2022-12-11T01:09:36;14.04;84.38
75782;DHT22;64400;44.762;37.698;2022-12-11T01:12:22;14.10;83.90
75782;DHT22;64400;44.762;37.698;2022-12-11T01:14:50;14.11;83.74
75782;DHT22;64400;44.762;37.698;2022-12-11T01:17:18;14.11;83.72
75782;DHT22;64400;44.762;37.698;2022-12-11T01:19:46;14.09;84.00
75782;DHT22;64400;44.762;37.698;2022-12-11T01:22:14;14.13;83.32
75782;DHT22;64400;44.762;37.698;2022-12-11T01:24:42;14.15;83.09
75782;DHT22;64400;44.762;37.698;2022-12-11T01:27:10;14.23;82.81
75782;DHT22;64400;44.762;37.698;2022-12-11T01:29:38;14.22;82.91
75782;DHT22;64400;44.762;37.698;2022-12-11T01:32:06;14.23;82.83
75782;DHT22;64400;44.762;37.698;2022-12-11T01:34:34;14.24;82.51
75782;DHT22;64400;44.762;37.698;2022-12-11T01:37:02;14.28;82.65
75782;DHT22;64400;44.762;37.698;2022-12-11T01:39:29;14.28;82.71
75782;DHT22;64400;44.762;37.698;2022-12-11T01:41:59;14.27;83.07
75782;DHT22;64400;44.762;37.698;2022-12-11T01:46:58;14.24;83.35
75782;DHT22;64400;44.762;37.698;2022-12-11T01:49:26;14.21;83.55
75782;DHT22;64400;44.762;37.698;2022-12-11T01:52:03;14.18;83.72
75782;DHT22;64400;44.762;37.698;2022-12-11T01:54:34;14.19;83.68
75782;DHT22;64400;44.762;37.698;2022-12-11T01:57:04;14.18;83.56
75782;DHT22;64400;44.762;37.698;2022-12-11T01:59:35;14.22;83.03
75782;DHT22;64400;44.762;37.698;2022-12-11T02:02:16;14.22;83.02
75782;DHT22;64400;44.762;37.698;2022-12-11T02:04:46;14.23;81.94
75782;DHT22;64400;44.762;37.698;2022-12-11T02:07:15;14.27;82.24
75782;DHT22;64400;44.762;37.698;2022-12-11T02:09:45;14.25;82.14
75782;DHT22;64400;44.762;37.698;2022-12-11T02:17:46;14.26;82.07
75782;DHT22;64400;44.762;37.698;2022-12-11T02:20:36;14.30;81.26
75782;DHT22;64400;44.762;37.698;2022-12-11T02:23:20;14.29;81.83
75782;DHT22;64400;44.762;37.698;2022-12-11T02:28:59;14.26;81.56
75782;DHT22;64400;44.762;37.698;2022-12-11T02:34:19;14.20;81.56
75782;DHT22;64400;44.762;37.698;2022-12-11T02:36:51;14.21;81.49
75782;DHT22;64400;44.762;37.698;2022-12-11T02:39:22;14.20;80.72
75782;DHT22;64400;44.762;37.698;2022-12-11T02:41:52;14.24;81.01
75782;DHT22;64400;44.762;37.698;2022-12-11T02:44:24;14.19;81.20
75782;DHT22;64400;44.762;37.698;2022-12-11T02:46:54;14.24;80.78
75782;DHT22;64400;44.762;37.698;2022-12-11T02:49:23;14.27;80.61
75782;DHT22;64400;44.762;37.698;2022-12-11T02:51:54;14.20;80.83
75782;DHT22;64400;44.762;37.698;2022-12-11T02:54:27;14.33;80.07
75782;DHT22;64400;44.762;37.698;2022-12-11T02:57:10;14.33;80.09
75782;DHT22;64400;44.762;37.698;2022-12-11T02:59:44;14.28;80.65
75782;DHT22;64400;44.762;37.698;2022-12-11T03:02:14;14.21;80.98
75782;DHT22;64400;44.762;37.698;2022-12-11T03:04:43;14.21;81.03
75782;DHT22;64400;44.762;37.698;2022-12-11T03:07:20;14.15;81.23
75782;DHT22;64400;44.762;37.698;2022-12-11T03:09:50;14.13;81.60
75782;DHT22;64400;44.762;37.698;2022-12-11T03:12:27;14.14;81.35
75782;DHT22;64400;44.762;37.698;2022-12-11T03:14:57;14.09;81.60
75782;DHT22;64400;44.762;37.698;2022-12-11T03:23:23;14.17;81.07
75782;DHT22;64400;44.762;37.698;2022-12-11T03:25:57;14.18;81.75
75782;DHT22;64400;44.762;37.698;2022-12-11T03:28:33;14.19;81.42
75782;DHT22;64400;44.762;37.698;2022-12-11T03:31:08;14.23;81.01
75782;DHT22;64400;44.762;37.698;2022-12-11T03:33:41;14.26;81.49
75782;DHT22;64400;44.762;37.698;2022-12-11T03:36:15;14.17;82.17
75782;DHT22;64400;44.762;37.698;2022-12-11T03:38:55;14.14;82.07
75782;DHT22;64400;44.762;37.698;2022-12-11T03:41:25;14.15;82.46
75782;DHT22;64400;44.762;37.698;2022-12-11T03:43:56;14.14;82.33
75782;DHT22;64400;44.762;37.698;2022-12-11T03:46:29;14.14;82.69
75782;DHT22;64400;44.762;37.698;2022-12-11T03:49:09;14.13;82.75
75782;DHT22;64400;44.762;37.698;2022-12-11T03:51:40;14.14;82.75
75782;DHT22;64400;44.762;37.698;2022-12-11T03:54:09;14.07;83.36
75782;DHT22;64400;44.762;37.698;2022-12-11T03:56:38;14.14;82.92
75782;DHT22;64400;44.762;37.698;2022-12-11T03:59:08;14.14;82.84
75782;DHT22;64400;44.762;37.698;2022-12-11T04:01:36;14.13;82.78
75782;DHT22;64400;44.762;37.698;2022-12-11T04:04:04;14.15;82.78
75782;DHT22;64400;44.762;37.698;2022-12-11T04:06:32;14.15;82.74
75782;DHT22;64400;44.762;37.698;2022-12-11T04:09:00;14.11;83.19
75782;DHT22;64400;44.762;37.698;2022-12-11T04:11:28;14.12;83.20
75782;DHT22;64400;44.762;37.698;2022-12-11T04:14:07;14.09;83.42
75782;DHT22;64400;44.762;37.698;2022-12-11T04:16:56;14.11;83.09
75782;DHT22;64400;44.762;37.698;2022-12-11T04:19:25;14.15;83.23
75782;DHT22;64400;44.762;37.698;2022-12-11T04:22:12;14.11;82.97
75782;DHT22;64400;44.762;37.698;2022-12-11T04:24:59;14.15;83.13
75782;DHT22;64400;44.762;37.698;2022-12-11T04:27:27;14.15;82.90
75782;DHT22;64400;44.762;37.698;2022-12-11T04:30:23;14.19;82.51
75782;DHT22;64400;44.762;37.698;2022-12-11T04:32:58;14.18;82.74
75782;DHT22;64400;44.762;37.698;2022-12-11T04:35:26;14.15;82.60
75782;DHT22;64400;44.762;37.698;2022-12-11T04:37:55;14.15;82.65
75782;DHT22;64400;44.762;37.698;2022-12-11T04:40:23;14.17;82.52
75782;DHT22;64400;44.762;37.698;2022-12-11T04:42:51;14.13;82.68
75782;DHT22;64400;44.762;37.698;2022-12-11T04:45:19;14.14;82.49
75782;DHT22;64400;44.762;37.698;2022-12-11T04:47:47;14.18;82.17
75782;DHT22;64400;44.762;37.698;2022-12-11T04:50:15;14.22;81.88
75782;DHT22;64400;44.762;37.698;2022-12-11T04:52:43;14.15;82.51
75782;DHT22;64400;44.762;37.698;2022-12-11T04:55:11;14.14;82.74
75782;DHT22;64400;44.762;37.698;2022-12-11T04:57:40;14.11;83.09
75782;DHT22;64400;44.762;37.698;2022-12-11T05:00:09;14.08;83.16
75782;DHT22;64400;44.762;37.698;2022-12-11T05:02:39;14.08;83.28
75782;DHT22;64400;44.762;37.698;2022-12-11T05:05:09;14.11;83.27
75782;DHT22;64400;44.762;37.698;2022-12-11T05:07:37;14.14;83.06
75782;DHT22;64400;44.762;37.698;2022-12-11T05:10:06;14.18;82.40
75782;DHT22;64400;44.762;37.698;2022-12-11T05:12:34;14.17;82.77
75782;DHT22;64400;44.762;37.698;2022-12-11T05:15:02;14.14;82.83
75782;DHT22;64400;44.762;37.698;2022-12-11T05:17:30;14.17;82.40
75782;DHT22;64400;44.762;37.698;2022-12-11T05:19:58;14.34;81.19
75782;DHT22;64400;44.762;37.698;2022-12-11T05:22:25;14.37;81.24
75782;DHT22;64400;44.762;37.698;2022-12-11T05:24:53;14.35;81.20
75782;DHT22;64400;44.762;37.698;2022-12-11T05:27:22;14.40;81.04
75782;DHT22;64400;44.762;37.698;2022-12-11T05:29:50;14.44;80.83
75782;DHT22;64400;44.762;37.698;2022-12-11T05:32:25;14.51;80.51
75782;DHT22;64400;44.762;37.698;2022-12-11T05:34:53;14.52;80.56
75782;DHT22;64400;44.762;37.698;2022-12-11T05:37:21;14.57;80.12
75782;DHT22;64400;44.762;37.698;2022-12-11T05:39:48;14.64;79.77
75782;DHT22;64400;44.762;37.698;2022-12-11T05:42:16;14.68;79.91
75782;DHT22;64400;44.762;37.698;2022-12-11T05:44:44;14.72;79.82
75782;DHT22;64400;44.762;37.698;2022-12-11T05:47:12;14.73;80.16
75782;DHT22;64400;44.762;37.698;2022-12-11T05:49:40;14.73;80.39
75782;DHT22;64400;44.762;37.698;2022-12-11T05:52:08;14.81;79.98
75782;DHT22;64400;44.762;37.698;2022-12-11T05:54:36;14.88;79.84
75782;DHT22;64400;44.762;37.698;2022-12-11T05:57:04;14.92;79.31
75782;DHT22;64400;44.762;37.698;2022-12-11T05:59:31;14.94;79.39
75782;DHT22;64400;44.762;37.698;2022-12-11T06:01:59;15.00;78.40
75782;DHT22;64400;44.762;37.698;2022-12-11T06:04:27;15.06;78.94
75782;DHT22;64400;44.762;37.698;2022-12-11T06:06:55;15.09;78.60
75782;DHT22;64400;44.762;37.698;2022-12-11T06:09:23;15.13;78.30
75782;DHT22;64400;44.762;37.698;2022-12-11T06:11:51;15.26;78.22
75782;DHT22;64400;44.762;37.698;2022-12-11T06:14:19;15.32;77.82
75782;DHT22;64400;44.762;37.698;2022-12-11T06:16:47;15.39;77.69
75782;DHT22;64400;44.762;37.698;2022-12-11T06:19:15;15.37;77.14
75782;DHT22;64400;44.762;37.698;2022-12-11T06:21:47;15.39;77.49
75782;DHT22;64400;44.762;37.698;2022-12-11T06:24:17;15.41;77.33
75782;DHT22;64400;44.762;37.698;2022-12-11T06:26:45;15.45;76.76
75782;DHT22;64400;44.762;37.698;2022-12-11T06:29:13;15.52;76.89
75782;DHT22;64400;44.762;37.698;2022-12-11T06:31:41;15.57;76.32
75782;DHT22;64400;44.762;37.698;2022-12-11T06:34:11;15.53;76.79
75782;DHT22;64400;44.762;37.698;2022-12-11T06:36:39;15.59;77.06
75782;DHT22;64400;44.762;37.698;2022-12-11T06:39:07;15.70;75.99
75782;DHT22;64400;44.762;37.698;2022-12-11T06:41:35;15.77;75.47
75782;DHT22;64400;44.762;37.698;2022-12-11T06:44:03;15.85;75.81
75782;DHT22;64400;44.762;37.698;2022-12-11T06:46:31;15.91;74.20
75782;DHT22;64400;44.762;37.698;2022-12-11T06:48:59;15.83;75.24
75782;DHT22;64400;44.762;37.698;2022-12-11T06:51:27;15.95;74.91
75782;DHT22;64400;44.762;37.698;2022-12-11T06:53:56;16.07;74.69
75782;DHT22;64400;44.762;37.698;2022-12-11T06:56:24;16.15;73.86
75782;DHT22;64400;44.762;37.698;2022-12-11T06:58:52;16.14;73.52
75782;DHT22;64400;44.762;37.698;2022-12-11T07:01:22;16.26;73.40
75782;DHT22;64400;44.762;37.698;2022-12-11T07:03:57;16.10;72.31
75782;DHT22;64400;44.762;37.698;2022-12-11T07:06:27;16.21;72.71
75782;DHT22;64400;44.762;37.698;2022-12-11T07:08:55;16.32;72.33
75782;DHT22;64400;44.762;37.698;2022-12-11T07:11:23;16.37;71.48
75782;DHT22;64400;44.762;37.698;2022-12-11T07:13:51;16.29;71.46
75782;DHT22;64400;44.762;37.698;2022-12-11T07:16:19;16.32;71.38
75782;DHT22;64400;44.762;37.698;2022-12-11T07:18:49;16.20;71.17
75782;DHT22;64400;44.762;37.698;2022-12-11T07:21:19;16.33;70.68
75782;DHT22;64400;44.762;37.698;2022-12-11T07:23:48;16.30;70.98
75782;DHT22;64400;44.762;37.698;2022-12-11T07:26:19;16.34;71.45
75782;DHT22;64400;44.762;37.698;2022-12-11T07:28:47;16.55;70.83
75782;DHT22;64400;44.762;37.698;2022-12-11T07:31:20;16.59;70.77
75782;DHT22;64400;44.762;37.698;2022-12-11T07:33:58;16.65;69.09
75782;DHT22;64400;44.762;37.698;2022-12-11T07:36:26;16.58;69.99
75782;DHT22;64400;44.762;37.698;2022-12-11T07:38:54;16.76;69.71
75782;DHT22;64400;44.762;37.698;2022-12-11T07:41:22;16.69;69.54
75782;DHT22;64400;44.762;37.698;2022-12-11T07:43:54;16.82;69.31
75782;DHT22;64400;44.762;37.698;2022-12-11T07:46:24;16.71;68.84
75782;DHT22;64400;44.762;37.698;2022-12-11T07:48:52;16.88;68.62
75782;DHT22;64400;44.762;37.698;2022-12-11T07:51:23;16.93;68.68
75782;DHT22;64400;44.762;37.698;2022-12-11T07:53:59;17.11;68.16
75782;DHT22;64400;44.762;37.698;2022-12-11T07:56:28;17.28;68.21
75782;DHT22;64400;44.762;37.698;2022-12-11T07:59:01;17.40;67.13
75782;DHT22;64400;44.762;37.698;2022-12-11T08:01:31;17.40;67.38
75782;DHT22;64400;44.762;37.698;2022-12-11T08:04:00;17.14;68.19
75782;DHT22;64400;44.762;37.698;2022-12-11T08:06:34;17.17;68.30
75782;DHT22;64400;44.762;37.698;2022-12-11T08:09:06;17.19;67.48
75782;DHT22;64400;44.762;37.698;2022-12-11T08:11:35;17.14;67.73
75782;DHT22;64400;44.762;37.698;2022-12-11T08:14:03;17.23;66.55
75782;DHT22;64400;44.762;37.698;2022-12-11T08:16:33;17.23;67.67
75782;DHT22;64400;44.762;37.698;2022-12-11T08:19:01;17.11;68.33
75782;DHT22;64400;44.762;37.698;2022-12-11T08:21:28;17.10;67.90
75782;DHT22;64400;44.762;37.698;2022-12-11T08:23:56;17.04;68.04
75782;DHT22;64400;44.762;37.698;2022-12-11T08:26:27;16.79;68.35
75782;DHT22;64400;44.762;37.698;2022-12-11T08:28:56;16.64;69.21
75782;DHT22;64400;44.762;37.698;2022-12-11T08:31:25;16.65;70.26
75782;DHT22;64400;44.762;37.698;2022-12-11T08:33:56;16.52;70.12
75782;DHT22;64400;44.762;37.698;2022-12-11T08:36:25;16.42;70.89
75782;DHT22;64400;44.762;37.698;2022-12-11T08:38:54;16.57;70.41
75782;DHT22;64400;44.762;37.698;2022-12-11T08:41:27;16.81;69.52
75782;DHT22;64400;44.762;37.698;2022-12-11T08:43:57;17.04;70.00
75782;DHT22;64400;44.762;37.698;2022-12-11T08:46:29;16.99;68.75
75782;DHT22;64400;44.762;37.698;2022-12-11T08:48:58;16.94;69.52
75782;DHT22;64400;44.762;37.698;2022-12-11T08:51:27;16.84;69.95
75782;DHT22;64400;44.762;37.698;2022-12-11T08:53:59;16.76;70.57
75782;DHT22;64400;44.762;37.698;2022-12-11T08:56:28;16.84;70.34
75782;DHT22;64400;44.762;37.698;2022-12-11T08:58:59;17.17;69.64
75782;DHT22;64400;44.762;37.698;2022-12-11T09:01:27;17.11;69.16
75782;DHT22;64400;44.762;37.698;2022-12-11T09:03:56;17.02;69.04
75782;DHT22;64400;44.762;37.698;2022-12-11T09:06:26;16.93;69.32
75782;DHT22;64400;44.762;37.698;2022-12-11T09:08:54;16.76;70.70
75782;DHT22;64400;44.762;37.698;2022-12-11T09:11:26;16.85;70.07
75782;DHT22;64400;44.762;37.698;2022-12-11T09:13:54;16.96;70.10
75782;DHT22;64400;44.762;37.698;2022-12-11T09:16:24;16.86;70.20
75782;DHT22;64400;44.762;37.698;2022-12-11T09:18:54;17.05;68.80
75782;DHT22;64400;44.762;37.698;2022-12-11T09:21:25;17.01;69.47
75782;DHT22;64400;44.762;37.698;2022-12-11T09:23:58;17.11;69.10
75782;DHT22;64400;44.762;37.698;2022-12-11T09:26:27;16.94;69.94
75782;DHT22;64400;44.762;37.698;2022-12-11T09:28:57;17.22;68.87
75782;DHT22;64400;44.762;37.698;2022-12-11T09:31:30;17.31;69.21
75782;DHT22;64400;44.762;37.698;2022-12-11T09:34:01;17.21;68.71
75782;DHT22;64400;44.762;37.698;2022-12-11T09:36:29;17.36;68.94
75782;DHT22;64400;44.762;37.698;2022-12-11T09:39:05;17.44;67.95
75782;DHT22;64400;44.762;37.698;2022-12-11T09:44:30;17.02;70.23
75782;DHT22;64400;44.762;37.698;2022-12-11T09:46:59;16.81;70.32
75782;DHT22;64400;44.762;37.698;2022-12-11T09:49:37;16.59;71.26
75782;DHT22;64400;44.762;37.698;2022-12-11T09:55:15;16.74;71.55
75782;DHT22;64400;44.762;37.698;2022-12-11T09:58:13;16.26;72.80
75782;DHT22;64400;44.762;37.698;2022-12-11T10:00:56;15.98;72.90
75782;DHT22;64400;44.762;37.698;2022-12-11T10:03:48;15.75;73.96
75782;DHT22;64400;44.762;37.698;2022-12-11T10:06:23;15.67;74.83
75782;DHT22;64400;44.762;37.698;2022-12-11T10:12:13;15.72;74.73
75782;DHT22;64400;44.762;37.698;2022-12-11T10:17:35;15.56;76.36
75782;DHT22;64400;44.762;37.698;2022-12-11T10:20:32;15.56;76.05
75782;DHT22;64400;44.762;37.698;2022-12-11T10:23:19;15.42;76.31
75782;DHT22;64400;44.762;37.698;2022-12-11T10:26:01;15.40;76.95
75782;DHT22;64400;44.762;37.698;2022-12-11T10:28:30;15.39;76.85
75782;DHT22;64400;44.762;37.698;2022-12-11T10:34:29;15.31;77.06
75782;DHT22;64400;44.762;37.698;2022-12-11T10:37:00;15.30;77.62
75782;DHT22;64400;44.762;37.698;2022-12-11T10:39:28;15.37;77.40
75782;DHT22;64400;44.762;37.698;2022-12-11T10:41:57;15.33;77.05
75782;DHT22;64400;44.762;37.698;2022-12-11T10:44:29;15.34;77.69
75782;DHT22;64400;44.762;37.698;2022-12-11T10:47:09;15.29;78.03
75782;DHT22;64400;44.762;37.698;2022-12-11T10:49:41;15.44;78.18
75782;DHT22;64400;44.762;37.698;2022-12-11T10:52:22;15.44;77.67
75782;DHT22;64400;44.762;37.698;2022-12-11T10:55:18;15.33;78.16
75782;DHT22;64400;44.762;37.698;2022-12-11T10:57:57;15.33;78.30
75782;DHT22;64400;44.762;37.698;2022-12-11T11:03:05;15.34;78.52
75782;DHT22;64400;44.762;37.698;2022-12-11T11:05:35;15.31;78.64
75782;DHT22;64400;44.762;37.698;2022-12-11T11:08:18;15.29;78.31
75782;DHT22;64400;44.762;37.698;2022-12-11T11:13:21;15.27;78.28
75782;DHT22;64400;44.762;37.698;2022-12-11T11:16:00;15.28;77.70
75782;DHT22;64400;44.762;37.698;2022-12-11T11:18:30;15.25;78.07
75782;DHT22;64400;44.762;37.698;2022-12-11T11:20:59;15.24;78.74
75782;DHT22;64400;44.762;37.698;2022-12-11T11:23:28;15.32;78.33
75782;DHT22;64400;44.762;37.698;2022-12-11T11:26:06;15.28;78.01
75782;DHT22;64400;44.762;37.698;2022-12-11T11:28:39;15.26;78.08
75782;DHT22;64400;44.762;37.698;2022-12-11T11:31:11;15.22;78.27
75782;DHT22;64400;44.762;37.698;2022-12-11T11:33:56;15.17;78.62
75782;DHT22;64400;44.762;37.698;2022-12-11T11:36:27;15.23;78.24
75782;DHT22;64400;44.762;37.698;2022-12-11T11:41:59;15.30;78.50
75782;DHT22;64400;44.762;37.698;2022-12-11T11:45:11;15.16;78.39
75782;DHT22;64400;44.762;37.698;2022-12-11T11:47:44;15.14;78.35
75782;DHT22;64400;44.762;37.698;2022-12-11T11:50:16;15.12;77.95
75782;DHT22;64400;44.762;37.698;2022-12-11T11:58:23;15.07;78.24
75782;DHT22;64400;44.762;37.698;2022-12-11T12:00:54;15.10;78.01
75782;DHT22;64400;44.762;37.698;2022-12-11T12:03:23;15.12;78.51
75782;DHT22;64400;44.762;37.698;2022-12-11T12:06:07;15.14;77.79
75782;DHT22;64400;44.762;37.698;2022-12-11T12:11:36;15.12;77.56
75782;DHT22;64400;44.762;37.698;2022-12-11T12:39:02;14.94;77.67
75782;DHT22;64400;44.762;37.698;2022-12-11T12:44:18;14.92;78.21
75782;DHT22;64400;44.762;37.698;2022-12-11T12:46:58;14.88;78.59
75782;DHT22;64400;44.762;37.698;2022-12-11T12:49:48;14.87;78.03
75782;DHT22;64400;44.762;37.698;2022-12-11T12:52:31;14.85;78.66
75782;DHT22;64400;44.762;37.698;2022-12-11T12:57:47;14.82;78.49
75782;DHT22;64400;44.762;37.698;2022-12-11T13:00:26;14.84;78.53
75782;DHT22;64400;44.762;37.698;2022-12-11T13:02:54;14.83;78.46
75782;DHT22;64400;44.762;37.698;2022-12-11T13:05:32;14.81;78.08
75782;DHT22;64400;44.762;37.698;2022-12-11T13:08:02;14.79;78.06
75782;DHT22;64400;44.762;37.698;2022-12-11T13:10:34;14.81;78.39
75782;DHT22;64400;44.762;37.698;2022-12-11T13:13:04;14.77;77.90
75782;DHT22;64400;44.762;37.698;2022-12-11T13:15:40;14.75;77.66
75782;DHT22;64400;44.762;37.698;2022-12-11T13:20:59;14.74;77.72
75782;DHT22;64400;44.762;37.698;2022-12-11T13:23:32;14.73;77.95
75782;DHT22;64400;44.762;37.698;2022-12-11T13:26:02;14.69;78.19
75782;DHT22;64400;44.762;37.698;2022-12-11T13:28:46;14.68;77.92
75782;DHT22;64400;44.762;37.698;2022-12-11T13:33:52;14.69;77.81
75782;DHT22;64400;44.762;37.698;2022-12-11T13:36:45;14.66;77.63
75782;DHT22;64400;44.762;37.698;2022-12-11T13:39:24;14.62;77.86
75782;DHT22;64400;44.762;37.698;2022-12-11T13:42:00;14.58;78.13
75782;DHT22;64400;44.762;37.698;2022-12-11T13:44:34;14.54;78.24
75782;DHT22;64400;44.762;37.698;2022-12-11T13:47:06;14.55;78.45
75782;DHT22;64400;44.762;37.698;2022-12-11T13:49:40;14.47;79.01
75782;DHT22;64400;44.762;37.698;2022-12-11T13:52:27;14.48;78.59
75782;DHT22;64400;44.762;37.698;2022-12-11T13:54:55;14.43;78.38
75782;DHT22;64400;44.762;37.698;2022-12-11T13:57:26;14.41;79.16
75782;DHT22;64400;44.762;37.698;2022-12-11T13:59:57;14.42;79.33
75782;DHT22;64400;44.762;37.698;2022-12-11T14:02:33;14.42;79.56
75782;DHT22;64400;44.762;37.698;2022-12-11T14:05:04;14.39;79.29
75782;DHT22;64400;44.762;37.698;2022-12-11T14:07:45;14.40;79.31
75782;DHT22;64400;44.762;37.698;2022-12-11T14:10:19;14.42;79.37
75782;DHT22;64400;44.762;37.698;2022-12-11T14:13:02;14.35;79.85
75782;DHT22;64400;44.762;37.698;2022-12-11T14:15:33;14.37;79.49
75782;DHT22;64400;44.762;37.698;2022-12-11T14:18:03;14.38;79.87
75782;DHT22;64400;44.762;37.698;2022-12-11T14:20:33;14.38;79.80
75782;DHT22;64400;44.762;37.698;2022-12-11T14:23:21;14.35;79.99
75782;DHT22;64400;44.762;37.698;2022-12-11T14:25:57;14.33;80.01
75782;DHT22;64400;44.762;37.698;2022-12-11T14:28:28;14.35;79.69
75782;DHT22;64400;44.762;37.698;2022-12-11T14:30:58;14.39;79.33
75782;DHT22;64400;44.762;37.698;2022-12-11T14:33:33;14.41;79.25
75782;DHT22;64400;44.762;37.698;2022-12-11T14:36:02;14.41;79.13
75782;DHT22;64400;44.762;37.698;2022-12-11T14:38:43;14.39;79.58
75782;DHT22;64400;44.762;37.698;2022-12-11T14:41:16;14.39;79.69
75782;DHT22;64400;44.762;37.698;2022-12-11T14:43:56;14.41;79.87
75782;DHT22;64400;44.762;37.698;2022-12-11T14:49:16;14.37;80.02
75782;DHT22;64400;44.762;37.698;2022-12-11T14:51:47;14.39;80.13
75782;DHT22;64400;44.762;37.698;2022-12-11T14:54:28;14.35;80.16
75782;DHT22;64400;44.762;37.698;2022-12-11T14:57:00;14.37;80.43
75782;DHT22;64400;44.762;37.698;2022-12-11T14:59:30;14.35;80.74
75782;DHT22;64400;44.762;37.698;2022-12-11T15:02:02;14.33;80.66
75782;DHT22;64400;44.762;37.698;2022-12-11T15:04:32;14.36;80.43
75782;DHT22;64400;44.762;37.698;2022-12-11T15:07:00;14.33;80.77
75782;DHT22;64400;44.762;37.698;2022-12-11T15:09:38;14.37;79.82
75782;DHT22;64400;44.762;37.698;2022-12-11T15:12:12;14.36;80.25
75782;DHT22;64400;44.762;37.698;2022-12-11T15:14:59;14.33;80.52
75782;DHT22;64400;44.762;37.698;2022-12-11T15:17:31;14.36;80.37
75782;DHT22;64400;44.762;37.698;2022-12-11T15:20:09;14.37;80.65
75782;DHT22;64400;44.762;37.698;2022-12-11T15:22:41;14.35;80.75
75782;DHT22;64400;44.762;37.698;2022-12-11T15:25:18;14.33;80.94
75782;DHT22;64400;44.762;37.698;2022-12-11T15:27:55;14.33;80.85
75782;DHT22;64400;44.762;37.698;2022-12-11T15:30:26;14.30;81.26
75782;DHT22;64400;44.762;37.698;2022-12-11T15:35:54;14.22;81.61
75782;DHT22;64400;44.762;37.698;2022-12-11T15:38:36;14.25;81.31
75782;DHT22;64400;44.762;37.698;2022-12-11T15:41:13;14.23;81.33
75782;DHT22;64400;44.762;37.698;2022-12-11T15:43:43;14.27;81.04
75782;DHT22;64400;44.762;37.698;2022-12-11T15:46:11;14.23;80.98
75782;DHT22;64400;44.762;37.698;2022-12-11T15:48:39;14.24;81.40
75782;DHT22;64400;44.762;37.698;2022-12-11T15:51:08;14.22;81.58
75782;DHT22;64400;44.762;37.698;2022-12-11T15:53:37;14.26;81.20
75782;DHT22;64400;44.762;37.698;2022-12-11T15:56:05;14.20;81.59
75782;DHT22;64400;44.762;37.698;2022-12-11T15:58:35;14.18;81.33
75782;DHT22;64400;44.762;37.698;2022-12-11T16:01:03;14.26;80.69
75782;DHT22;64400;44.762;37.698;2022-12-11T16:03:31;14.32;80.87
75782;DHT22;64400;44.762;37.698;2022-12-11T16:05:59;14.25;81.07
75782;DHT22;64400;44.762;37.698;2022-12-11T16:08:27;14.25;81.25
75782;DHT22;64400;44.762;37.698;2022-12-11T16:10:55;14.34;80.54
75782;DHT22;64400;44.762;37.698;2022-12-11T16:13:26;14.33;80.79
75782;DHT22;64400;44.762;37.698;2022-12-11T16:15:54;14.36;80.94
75782;DHT22;64400;44.762;37.698;2022-12-11T16:18:22;14.33;81.22
75782;DHT22;64400;44.762;37.698;2022-12-11T16:20:51;14.29;81.18
75782;DHT22;64400;44.762;37.698;2022-12-11T16:23:19;14.34;80.93
75782;DHT22;64400;44.762;37.698;2022-12-11T16:25:47;14.32;81.09
75782;DHT22;64400;44.762;37.698;2022-12-11T16:28:19;14.27;81.21
75782;DHT22;64400;44.762;37.698;2022-12-11T16:30:49;14.27;81.40
75782;DHT22;64400;44.762;37.698;2022-12-11T16:33:17;14.30;81.13
75782;DHT22;64400;44.762;37.698;2022-12-11T16:35:45;14.30;81.14
75782;DHT22;64400;44.762;37.698;2022-12-11T16:38:13;14.29;81.07
75782;DHT22;64400;44.762;37.698;2022-12-11T16:40:42;14.32;81.05
75782;DHT22;64400;44.762;37.698;2022-12-11T16:43:10;14.28;81.14
75782;DHT22;64400;44.762;37.698;2022-12-11T16:45:37;14.28;80.71
75782;DHT22;64400;44.762;37.698;2022-12-11T16:48:08;14.29;80.75
75782;DHT22;64400;44.762;37.698;2022-12-11T16:50:39;14.34;80.77
75782;DHT22;64400;44.762;37.698;2022-12-11T16:53:07;14.34;80.31
75782;DHT22;64400;44.762;37.698;2022-12-11T16:55:38;14.37;79.88
75782;DHT22;64400;44.762;37.698;2022-12-11T16:58:06;14.45;79.14
75782;DHT22;64400;44.762;37.698;2022-12-11T17:00:34;14.49;78.88
75782;DHT22;64400;44.762;37.698;2022-12-11T17:03:05;14.43;79.37
75782;DHT22;64400;44.762;37.698;2022-12-11T17:05:33;14.45;78.97
75782;DHT22;64400;44.762;37.698;2022-12-11T17:08:01;14.49;78.67
75782;DHT22;64400;44.762;37.698;2022-12-11T17:10:29;14.57;78.06
75782;DHT22;64400;44.762;37.698;2022-12-11T17:13:00;14.59;77.85
75782;DHT22;64400;44.762;37.698;2022-12-11T17:15:34;14.60;77.89